Time;durP1;ratioP1;P1;durP2;ratioP2;P2;SDS_P1;SDS_P2;PMS_P1;PMS_P2;Temp;Humidity;BMP_temperature;BMP_pressure;BME280_temperature;BME280_humidity;BME280_pressure;Samples;Min_cycle;Max_cycle;Signal;HPM_P1;HPM_P2
2019/09/12 05:13:09;;;;;;;5.6;3.4;;;;;;;15.92;70.46973;973.1097;;;;
2019/09/12 05:17:05;;;;;;;6.9;3.6;;;;;;;15.92;71.45996;973.118;;;;
2019/09/12 05:19:30;;;;;;;5.7;3.3;;;;;;;15.94;70.4707;973.1041;;;;
2019/09/12 05:21:55;;;;;;;5.5;3.7;;;;;;;15.85;70.53906;973.1175;;;;
2019/09/12 05:24:20;;;;;;;4.5;3.5;;;;;;;15.79;71.30957;973.1397;;;;
2019/09/12 05:26:45;;;;;;;4.8;3.3;;;;;;;15.85;71.25;973.1828;;;;
2019/09/12 05:29:10;;;;;;;5.2;3.3;;;;;;;15.95;70.48535;973.1514;;;;
2019/09/12 05:31:35;;;;;;;5.7;3.3;;;;;;;15.9;70.72168;973.1552;;;;
2019/09/12 05:34:00;;;;;;;4.2;3.1;;;;;;;15.88;72.74609;973.103;;;;
2019/09/12 05:36:25;;;;;;;5.1;3.5;;;;;;;15.83;71.00098;973.1284;;;;
2019/09/12 05:38:50;;;;;;;8.2;3.3;;;;;;;15.84;70.83887;973.1417;;;;
2019/09/12 05:41:16;;;;;;;5.6;3.4;;;;;;;15.89;70.98828;973.1691;;;;
2019/09/12 05:43:41;;;;;;;5.4;3.3;;;;;;;15.88;72.04492;973.1448;;;;
2019/09/12 05:46:06;;;;;;;6.5;3.6;;;;;;;15.83;71.49023;973.1309;;;;
2019/09/12 05:48:31;;;;;;;8.4;3.7;;;;;;;15.81;71.81348;973.1814;;;;
2019/09/12 05:50:56;;;;;;;4.9;3.4;;;;;;;15.9;71.30371;973.235;;;;
2019/09/12 05:53:21;;;;;;;7.5;3.8;;;;;;;15.84;71.62012;973.3134;;;;
2019/09/12 05:55:46;;;;;;;8.6;3.6;;;;;;;15.89;71.47754;973.3089;;;;
2019/09/12 05:58:11;;;;;;;6.7;3.8;;;;;;;15.98;71.49219;973.2877;;;;
2019/09/12 06:00:36;;;;;;;5;3.2;;;;;;;16.05;72.03809;973.3819;;;;
2019/09/12 06:03:01;;;;;;;6.3;3.5;;;;;;;16.01;71.30957;973.3928;;;;
2019/09/12 06:05:26;;;;;;;6.9;3.6;;;;;;;16.05;71.27051;973.3951;;;;
2019/09/12 06:07:51;;;;;;;5.6;3.5;;;;;;;15.99;70.94531;973.3964;;;;
2019/09/12 06:10:16;;;;;;;8.3;3.6;;;;;;;16;71.63574;973.3669;;;;
2019/09/12 06:12:41;;;;;;;4.5;3.5;;;;;;;16;72.26563;973.3134;;;;
2019/09/12 06:15:06;;;;;;;8.3;3.5;;;;;;;15.97;72.14258;973.3942;;;;
2019/09/12 06:17:32;;;;;;;6.9;3.4;;;;;;;15.96;71.93164;973.348;;;;
2019/09/12 06:19:57;;;;;;;4.6;3.2;;;;;;;16;72.20703;973.3373;;;;
2019/09/12 06:22:22;;;;;;;6.7;3.8;;;;;;;15.99;72.35547;973.3372;;;;
2019/09/12 06:24:47;;;;;;;5.7;3.8;;;;;;;16.06;72.30957;973.3293;;;;
2019/09/12 06:27:12;;;;;;;5.9;3.8;;;;;;;16.08;73.66602;973.3875;;;;
2019/09/12 06:29:37;;;;;;;4.5;3.5;;;;;;;16.16;74.33105;973.3933;;;;
2019/09/12 06:32:02;;;;;;;6.1;3.9;;;;;;;16.14;74.49121;973.4454;;;;
2019/09/12 06:34:27;;;;;;;6.7;3.6;;;;;;;16.29;72.7207;973.4747;;;;
2019/09/12 06:36:52;;;;;;;6.8;4.1;;;;;;;16.42;73.29102;973.4889;;;;
2019/09/12 06:39:17;;;;;;;4.3;3.6;;;;;;;16.54;73.46094;973.4727;;;;
2019/09/12 06:41:42;;;;;;;8.9;4.2;;;;;;;16.5;73.93359;973.5421;;;;
2019/09/12 06:44:07;;;;;;;6.4;3.9;;;;;;;16.48;73.46387;973.5723;;;;
2019/09/12 06:46:33;;;;;;;8.5;3.8;;;;;;;16.54;74.82813;973.6097;;;;
2019/09/12 06:48:58;;;;;;;7.3;4.2;;;;;;;16.51;73.81641;973.603;;;;
2019/09/12 06:51:23;;;;;;;8.2;4.2;;;;;;;16.52;73.08594;973.6536;;;;
2019/09/12 06:53:48;;;;;;;6.4;4;;;;;;;16.64;73.26758;973.5842;;;;
2019/09/12 06:56:13;;;;;;;5.9;3.6;;;;;;;16.8;73.72656;973.644;;;;
2019/09/12 06:58:38;;;;;;;5.3;3.7;;;;;;;16.81;73.13281;973.7001;;;;
2019/09/12 07:01:03;;;;;;;6.6;3.9;;;;;;;16.81;72.86523;973.6501;;;;
2019/09/12 07:03:28;;;;;;;5.4;3.6;;;;;;;16.87;73.20117;973.7061;;;;
2019/09/12 07:05:53;;;;;;;5.7;3.4;;;;;;;16.92;72.83691;973.7433;;;;
2019/09/12 07:08:19;;;;;;;9.9;4.3;;;;;;;16.79;72.89551;973.7781;;;;
2019/09/12 07:10:44;;;;;;;5.2;3.7;;;;;;;16.9;73.23047;973.7717;;;;
2019/09/12 07:13:09;;;;;;;7.1;4.2;;;;;;;16.96;72.74902;973.8031;;;;
2019/09/12 07:15:34;;;;;;;5.8;3.7;;;;;;;16.96;72.59766;973.8287;;;;
2019/09/12 07:17:59;;;;;;;5.8;3.4;;;;;;;17.02;72.50293;973.863;;;;
2019/09/12 07:20:24;;;;;;;8.8;3.4;;;;;;;17.03;72.38672;973.9512;;;;
2019/09/12 07:22:49;;;;;;;5.5;3.7;;;;;;;17.06;72.38184;973.9666;;;;
2019/09/12 07:25:14;;;;;;;5.4;3.4;;;;;;;17.16;72.79297;973.9228;;;;
2019/09/12 07:27:39;;;;;;;5;3.6;;;;;;;17.36;71.51855;973.969;;;;
2019/09/12 07:30:04;;;;;;;5.1;3.6;;;;;;;17.58;71.88184;974.0061;;;;
2019/09/12 07:32:29;;;;;;;5.5;3.5;;;;;;;17.67;70.85547;974.0041;;;;
2019/09/12 07:34:54;;;;;;;6.3;3.5;;;;;;;17.74;69.80273;974.1052;;;;
2019/09/12 07:37:20;;;;;;;4.7;3.2;;;;;;;17.76;68.96191;974.158;;;;
2019/09/12 07:39:45;;;;;;;4.3;3.1;;;;;;;17.76;68.77539;974.1406;;;;
2019/09/12 07:42:10;;;;;;;5.4;3.3;;;;;;;17.77;70.19434;974.1454;;;;
2019/09/12 07:44:35;;;;;;;4.1;2.8;;;;;;;17.67;69.87305;974.1575;;;;
2019/09/12 07:47:00;;;;;;;5;3.1;;;;;;;17.72;70.85156;974.1855;;;;
2019/09/12 07:49:25;;;;;;;5.9;3.3;;;;;;;17.86;68.94238;974.2184;;;;
2019/09/12 07:51:50;;;;;;;4.9;3.5;;;;;;;17.9;69.27832;974.2759;;;;
2019/09/12 07:54:15;;;;;;;6.5;3.7;;;;;;;17.97;68.06055;974.3247;;;;
2019/09/12 07:56:40;;;;;;;3.7;3.3;;;;;;;18;68.63672;974.3234;;;;
2019/09/12 07:59:06;;;;;;;6.8;3.8;;;;;;;17.97;68.13086;974.3642;;;;
2019/09/12 08:01:31;;;;;;;5.3;3.6;;;;;;;18.07;67.88672;974.3423;;;;
2019/09/12 08:03:56;;;;;;;6.1;3.8;;;;;;;17.95;67.7168;974.3427;;;;
2019/09/12 08:06:21;;;;;;;4.8;3.4;;;;;;;18.14;67.81543;974.3831;;;;
2019/09/12 08:08:46;;;;;;;4;3.5;;;;;;;18.12;67.66113;974.457;;;;
2019/09/12 08:11:12;;;;;;;4.8;3.5;;;;;;;18.08;66.85742;974.5136;;;;
2019/09/12 08:13:37;;;;;;;3.7;3.3;;;;;;;18.09;67.44629;974.5681;;;;
2019/09/12 08:16:02;;;;;;;5.9;3.6;;;;;;;18.18;66.80273;974.5775;;;;
2019/09/12 08:18:27;;;;;;;5;3.4;;;;;;;18.18;65.77148;974.5948;;;;
2019/09/12 08:20:52;;;;;;;4.7;3.1;;;;;;;18.25;67.34082;974.6398;;;;
2019/09/12 08:23:17;;;;;;;4.1;3.3;;;;;;;18.36;66.19824;974.6344;;;;
2019/09/12 08:25:42;;;;;;;5.2;3.2;;;;;;;18.34;65.11816;974.6055;;;;
2019/09/12 08:28:08;;;;;;;4.8;3.2;;;;;;;18.38;65.18164;974.6852;;;;
2019/09/12 08:30:33;;;;;;;3.8;2.7;;;;;;;18.35;64.42773;974.6195;;;;
2019/09/12 08:32:58;;;;;;;4.4;2.9;;;;;;;18.39;64.46777;974.6406;;;;
2019/09/12 08:35:24;;;;;;;4.2;3.1;;;;;;;18.44;64.7207;974.5728;;;;
2019/09/12 08:37:49;;;;;;;4.9;3;;;;;;;18.37;65.2627;974.6058;;;;
2019/09/12 08:40:14;;;;;;;5.6;2.9;;;;;;;18.44;63.6543;974.6124;;;;
2019/09/12 08:42:39;;;;;;;4.2;3;;;;;;;18.57;64.5752;974.6428;;;;
2019/09/12 08:45:04;;;;;;;4.7;3.2;;;;;;;18.64;64.41113;974.6512;;;;
2019/09/12 08:47:29;;;;;;;4.7;2.9;;;;;;;18.68;64.17188;974.6401;;;;
2019/09/12 08:49:55;;;;;;;6.3;3;;;;;;;18.75;62.80859;974.6667;;;;
2019/09/12 08:52:20;;;;;;;3.6;2.7;;;;;;;18.67;62.9043;974.6227;;;;
2019/09/12 08:54:45;;;;;;;5.8;2.7;;;;;;;18.73;62.75781;974.668;;;;
2019/09/12 08:57:10;;;;;;;4.9;2.6;;;;;;;18.83;63.73535;974.676;;;;
2019/09/12 08:59:36;;;;;;;3.3;2.4;;;;;;;18.93;63.64453;974.6955;;;;
2019/09/12 09:02:01;;;;;;;3.7;2.6;;;;;;;18.69;61.20605;974.7062;;;;
2019/09/12 09:04:26;;;;;;;5;2.6;;;;;;;18.77;61.74512;974.7191;;;;
2019/09/12 09:06:52;;;;;;;4.4;2.8;;;;;;;18.88;62.33496;974.7494;;;;
2019/09/12 09:09:17;;;;;;;4.3;2.4;;;;;;;18.93;62.97656;974.7434;;;;
2019/09/12 09:11:42;;;;;;;5.5;2.4;;;;;;;18.88;59.95215;974.7593;;;;
2019/09/12 09:14:07;;;;;;;5.5;2.3;;;;;;;18.87;60.30469;974.7342;;;;
2019/09/12 09:16:32;;;;;;;6.8;2.4;;;;;;;18.84;60.8623;974.7768;;;;
2019/09/12 09:18:57;;;;;;;4.8;2.1;;;;;;;19.02;59.03418;974.7944;;;;
2019/09/12 09:21:23;;;;;;;3.8;2.2;;;;;;;18.9;60.51953;974.8444;;;;
2019/09/12 09:23:48;;;;;;;5.7;2.1;;;;;;;18.95;61.38281;974.8516;;;;
2019/09/12 09:26:13;;;;;;;4.9;2.5;;;;;;;18.97;59.50879;974.8942;;;;
2019/09/12 09:28:38;;;;;;;4.8;2.4;;;;;;;19;60.55664;974.93;;;;
2019/09/12 09:31:03;;;;;;;4.7;2.2;;;;;;;19.04;59.18945;974.9055;;;;
2019/09/12 09:33:28;;;;;;;5.5;2.3;;;;;;;19.2;58.65918;974.9384;;;;
2019/09/12 09:35:54;;;;;;;4.5;2.4;;;;;;;19.35;59.54785;974.9119;;;;
2019/09/12 09:38:19;;;;;;;4.4;2.6;;;;;;;19.41;59.86133;974.8834;;;;
2019/09/12 09:40:44;;;;;;;4.8;2.2;;;;;;;19.57;57.9668;974.8661;;;;
2019/09/12 09:43:09;;;;;;;3.2;2.1;;;;;;;19.73;53.80469;974.9097;;;;
2019/09/12 09:45:34;;;;;;;4.6;2;;;;;;;19.83;54.5459;974.8848;;;;
2019/09/12 09:47:59;;;;;;;5.5;2.3;;;;;;;19.93;53.98242;974.8484;;;;
2019/09/12 09:50:24;;;;;;;4.2;2.2;;;;;;;19.98;56.16309;974.8684;;;;
2019/09/12 09:52:50;;;;;;;5.1;2.1;;;;;;;19.94;53.83008;974.8758;;;;
2019/09/12 09:55:15;;;;;;;4.1;2.1;;;;;;;19.9;55.04785;974.7978;;;;
2019/09/12 09:57:40;;;;;;;4.9;2.2;;;;;;;20.04;55.80762;974.8502;;;;
2019/09/12 10:00:06;;;;;;;6.5;2.2;;;;;;;20.04;54.2666;974.8923;;;;
2019/09/12 10:02:31;;;;;;;5.1;2.1;;;;;;;19.92;54.21484;974.8466;;;;
2019/09/12 10:04:56;;;;;;;5.8;2.3;;;;;;;19.85;53.25488;974.8727;;;;
2019/09/12 10:07:21;;;;;;;3.9;1.9;;;;;;;20.11;51.86328;974.8713;;;;
2019/09/12 10:09:46;;;;;;;3.8;1.9;;;;;;;20.3;52.21582;974.9459;;;;
2019/09/12 10:12:11;;;;;;;5.2;1.7;;;;;;;20.19;53.33105;974.9113;;;;
2019/09/12 10:14:36;;;;;;;3.6;1.9;;;;;;;20.35;50.41992;974.9827;;;;
2019/09/12 10:17:01;;;;;;;4.8;1.8;;;;;;;20.39;50.36523;974.9588;;;;
2019/09/12 10:19:26;;;;;;;4.8;1.7;;;;;;;20.13;50.46582;974.9368;;;;
2019/09/12 10:21:52;;;;;;;5.3;1.9;;;;;;;20.15;52.32617;974.9608;;;;
2019/09/12 10:24:17;;;;;;;3.3;1.8;;;;;;;20;52.42578;974.9639;;;;
2019/09/12 10:26:42;;;;;;;3.3;1.8;;;;;;;20.07;52.57617;974.9861;;;;
2019/09/12 10:29:08;;;;;;;3.6;1.7;;;;;;;20.02;49.98242;974.8789;;;;
2019/09/12 10:31:33;;;;;;;4.8;1.7;;;;;;;19.88;51.28418;974.8836;;;;
2019/09/12 10:33:58;;;;;;;4.4;1.7;;;;;;;19.87;51.31738;974.8655;;;;
2019/09/12 10:36:24;;;;;;;3.8;1.8;;;;;;;19.93;51.10156;974.8153;;;;
2019/09/12 10:38:49;;;;;;;4.5;1.6;;;;;;;20;51.36816;974.8348;;;;
2019/09/12 10:41:14;;;;;;;4.6;2.6;;;;;;;20.04;51.99707;974.8245;;;;
2019/09/12 10:43:39;;;;;;;4.7;1.7;;;;;;;20.05;50.91504;974.8567;;;;
2019/09/12 10:46:04;;;;;;;2.8;1.4;;;;;;;19.98;47.55469;974.8362;;;;
2019/09/12 10:48:29;;;;;;;2.6;1.1;;;;;;;20.18;48.5293;974.8086;;;;
2019/09/12 10:50:54;;;;;;;3.4;1.1;;;;;;;20.2;49.23828;974.8047;;;;
2019/09/12 10:53:20;;;;;;;2.3;1.4;;;;;;;20.12;49.79395;974.7826;;;;
2019/09/12 10:55:45;;;;;;;3.4;1.5;;;;;;;20.25;49.2207;974.8283;;;;
2019/09/12 10:58:10;;;;;;;2.8;1.4;;;;;;;20.55;48.94727;974.8276;;;;
2019/09/12 11:00:35;;;;;;;3.8;1.8;;;;;;;20.46;49.93848;974.7952;;;;
